sensor_id;sensor_type;location;lat;lon;timestamp;pressure;altitude;pressure_sealevel;temperature;humidity
65175;BME280;51761;42.126;24.752;2022-07-24T00:01:37;99566.63;;;24.98;47.57
65175;BME280;51761;42.126;24.752;2022-07-24T00:04:04;99558.06;;;24.98;47.33
65175;BME280;51761;42.126;24.752;2022-07-24T00:06:30;99546.13;;;24.83;47.41
65175;BME280;51761;42.126;24.752;2022-07-24T00:08:56;99572.59;;;25.00;47.47
65175;BME280;51761;42.126;24.752;2022-07-24T00:11:21;99568.69;;;24.98;47.66
65175;BME280;51761;42.126;24.752;2022-07-24T00:13:47;99567.94;;;24.92;47.55
65175;BME280;51761;42.126;24.752;2022-07-24T00:16:13;99567.44;;;24.71;48.27
65175;BME280;51761;42.126;24.752;2022-07-24T00:18:39;99554.97;;;24.74;47.57
65175;BME280;51761;42.126;24.752;2022-07-24T00:21:04;99537.06;;;24.63;47.92
65175;BME280;51761;42.126;24.752;2022-07-24T00:23:30;99578.06;;;24.87;47.94
65175;BME280;51761;42.126;24.752;2022-07-24T00:25:56;99583.00;;;24.92;47.69
65175;BME280;51761;42.126;24.752;2022-07-24T00:28:21;99593.91;;;24.66;48.31
65175;BME280;51761;42.126;24.752;2022-07-24T00:30:47;99577.31;;;24.65;48.28
65175;BME280;51761;42.126;24.752;2022-07-24T00:33:13;99587.44;;;24.71;47.90
65175;BME280;51761;42.126;24.752;2022-07-24T00:35:38;99587.94;;;24.70;48.38
65175;BME280;51761;42.126;24.752;2022-07-24T00:38:04;99548.47;;;24.52;48.09
65175;BME280;51761;42.126;24.752;2022-07-24T00:40:30;99580.69;;;24.74;48.29
65175;BME280;51761;42.126;24.752;2022-07-24T00:42:56;99583.28;;;24.67;48.15
65175;BME280;51761;42.126;24.752;2022-07-24T00:45:23;99581.75;;;24.55;48.34
65175;BME280;51761;42.126;24.752;2022-07-24T00:47:49;99528.25;;;24.28;48.60
65175;BME280;51761;42.126;24.752;2022-07-24T00:50:16;99581.75;;;24.55;48.72
65175;BME280;51761;42.126;24.752;2022-07-24T00:52:44;99560.66;;;24.36;48.59
65175;BME280;51761;42.126;24.752;2022-07-24T00:55:11;99591.31;;;24.46;48.80
65175;BME280;51761;42.126;24.752;2022-07-24T00:57:37;99553.13;;;24.22;49.04
65175;BME280;51761;42.126;24.752;2022-07-24T01:00:07;99584.28;;;24.36;49.17
65175;BME280;51761;42.126;24.752;2022-07-24T01:02:33;99585.56;;;24.24;49.37
65175;BME280;51761;42.126;24.752;2022-07-24T01:04:59;99577.50;;;24.23;49.42
65175;BME280;51761;42.126;24.752;2022-07-24T01:07:25;99583.75;;;24.27;49.38
65175;BME280;51761;42.126;24.752;2022-07-24T01:09:51;99572.31;;;24.16;49.44
65175;BME280;51761;42.126;24.752;2022-07-24T01:12:18;99583.22;;;24.12;49.74
65175;BME280;51761;42.126;24.752;2022-07-24T01:14:44;99568.13;;;24.01;50.00
65175;BME280;51761;42.126;24.752;2022-07-24T01:17:10;99554.16;;;23.97;50.03
65175;BME280;51761;42.126;24.752;2022-07-24T01:19:36;99582.69;;;24.08;49.82
65175;BME280;51761;42.126;24.752;2022-07-24T01:22:02;99567.09;;;23.93;50.19
65175;BME280;51761;42.126;24.752;2022-07-24T01:24:27;99566.56;;;23.89;50.58
65175;BME280;51761;42.126;24.752;2022-07-24T01:26:53;99573.03;;;23.84;50.73
65175;BME280;51761;42.126;24.752;2022-07-24T01:29:19;99582.13;;;23.88;50.98
65175;BME280;51761;42.126;24.752;2022-07-24T01:31:44;99534.25;;;23.50;50.97
65175;BME280;51761;42.126;24.752;2022-07-24T01:34:10;99570.34;;;23.64;51.21
65175;BME280;51761;42.126;24.752;2022-07-24T01:36:36;99568.53;;;23.72;51.26
65175;BME280;51761;42.126;24.752;2022-07-24T01:39:02;99571.66;;;23.74;51.19
65175;BME280;51761;42.126;24.752;2022-07-24T01:41:27;99534.47;;;23.41;51.38
65175;BME280;51761;42.126;24.752;2022-07-24T01:43:53;99558.97;;;23.69;51.53
65175;BME280;51761;42.126;24.752;2022-07-24T01:46:18;99562.28;;;23.62;51.53
65175;BME280;51761;42.126;24.752;2022-07-24T01:48:44;99559.69;;;23.64;51.62
65175;BME280;51761;42.126;24.752;2022-07-24T01:51:10;99531.16;;;23.53;51.59
65175;BME280;51761;42.126;24.752;2022-07-24T01:53:35;99505.69;;;23.28;51.85
65175;BME280;51761;42.126;24.752;2022-07-24T01:56:01;99477.97;;;23.34;51.38
65175;BME280;51761;42.126;24.752;2022-07-24T01:58:27;99566.00;;;23.79;50.99
65175;BME280;51761;42.126;24.752;2022-07-24T02:00:53;99535.34;;;23.58;51.22
65175;BME280;51761;42.126;24.752;2022-07-24T02:03:18;99561.41;;;23.98;50.15
65175;BME280;51761;42.126;24.752;2022-07-24T02:05:45;99535.63;;;23.71;50.80
65175;BME280;51761;42.126;24.752;2022-07-24T02:08:10;99554.91;;;23.87;51.48
65175;BME280;51761;42.126;24.752;2022-07-24T02:10:36;99560.09;;;23.94;51.06
65175;BME280;51761;42.126;24.752;2022-07-24T02:13:02;99534.66;;;23.85;50.47
65175;BME280;51761;42.126;24.752;2022-07-24T02:15:27;99563.22;;;24.01;50.71
65175;BME280;51761;42.126;24.752;2022-07-24T02:17:58;99525.84;;;23.83;51.12
65175;BME280;51761;42.126;24.752;2022-07-24T02:20:24;99558.53;;;24.04;50.51
65175;BME280;51761;42.126;24.752;2022-07-24T02:22:50;99561.41;;;24.09;50.70
65175;BME280;51761;42.126;24.752;2022-07-24T02:25:16;99559.59;;;24.06;51.00
65175;BME280;51761;42.126;24.752;2022-07-24T02:27:41;99523.53;;;23.98;51.02
65175;BME280;51761;42.126;24.752;2022-07-24T02:30:10;99536.50;;;24.04;51.58
65175;BME280;51761;42.126;24.752;2022-07-24T02:32:36;99526.41;;;24.14;52.54
65175;BME280;51761;42.126;24.752;2022-07-24T02:35:02;99551.31;;;24.41;50.53
65175;BME280;51761;42.126;24.752;2022-07-24T02:37:27;99550.53;;;24.46;50.75
65175;BME280;51761;42.126;24.752;2022-07-24T02:39:53;99557.06;;;24.57;50.51
65175;BME280;51761;42.126;24.752;2022-07-24T02:42:18;99531.59;;;24.37;49.92
65175;BME280;51761;42.126;24.752;2022-07-24T02:44:44;99518.88;;;24.38;52.48
65175;BME280;51761;42.126;24.752;2022-07-24T02:47:09;99521.72;;;24.38;49.84
65175;BME280;51761;42.126;24.752;2022-07-24T02:49:35;99559.63;;;24.66;53.28
65175;BME280;51761;42.126;24.752;2022-07-24T02:52:02;99559.66;;;24.77;50.81
65175;BME280;51761;42.126;24.752;2022-07-24T02:54:27;99544.56;;;24.77;54.19
65175;BME280;51761;42.126;24.752;2022-07-24T02:56:53;99512.94;;;24.58;52.97
65175;BME280;51761;42.126;24.752;2022-07-24T02:59:18;99557.03;;;24.74;51.71
65175;BME280;51761;42.126;24.752;2022-07-24T03:01:44;99562.50;;;24.72;49.92
65175;BME280;51761;42.126;24.752;2022-07-24T03:04:09;99533.69;;;24.64;50.89
65175;BME280;51761;42.126;24.752;2022-07-24T03:06:35;99530.06;;;24.69;50.02
65175;BME280;51761;42.126;24.752;2022-07-24T03:09:01;99549.25;;;24.85;54.88
65175;BME280;51761;42.126;24.752;2022-07-24T03:11:27;99540.41;;;24.83;52.38
65175;BME280;51761;42.126;24.752;2022-07-24T03:13:52;99516.81;;;24.72;50.70
65175;BME280;51761;42.126;24.752;2022-07-24T03:16:18;99552.91;;;24.86;51.23
65175;BME280;51761;42.126;24.752;2022-07-24T03:18:43;99555.47;;;24.89;51.39
65175;BME280;51761;42.126;24.752;2022-07-24T03:21:16;99549.50;;;24.93;51.33
65175;BME280;51761;42.126;24.752;2022-07-24T03:23:42;99551.81;;;24.94;52.92
65175;BME280;51761;42.126;24.752;2022-07-24T03:26:08;99506.69;;;24.71;54.91
65175;BME280;51761;42.126;24.752;2022-07-24T03:28:34;99556.50;;;24.97;52.69
65175;BME280;51761;42.126;24.752;2022-07-24T03:30:59;99535.25;;;24.71;51.33
65175;BME280;51761;42.126;24.752;2022-07-24T03:33:28;99557.53;;;24.94;52.91
65175;BME280;51761;42.126;24.752;2022-07-24T03:35:54;99540.13;;;24.92;55.20
65175;BME280;51761;42.126;24.752;2022-07-24T03:38:20;99559.63;;;24.99;52.27
65175;BME280;51761;42.126;24.752;2022-07-24T03:40:46;99549.50;;;24.93;53.62
65175;BME280;51761;42.126;24.752;2022-07-24T03:43:12;99548.19;;;24.88;50.85
65175;BME280;51761;42.126;24.752;2022-07-24T03:45:38;99552.34;;;24.93;51.77
65175;BME280;51761;42.126;24.752;2022-07-24T03:48:04;99513.69;;;24.75;49.59
65175;BME280;51761;42.126;24.752;2022-07-24T03:50:30;99523.31;;;24.72;50.60
65175;BME280;51761;42.126;24.752;2022-07-24T03:52:55;99564.53;;;24.93;52.82
65175;BME280;51761;42.126;24.752;2022-07-24T03:55:21;99558.06;;;24.98;54.83
65175;BME280;51761;42.126;24.752;2022-07-24T03:57:47;99561.19;;;25.00;50.04
65175;BME280;51761;42.126;24.752;2022-07-24T04:00:13;99559.63;;;24.94;52.82
65175;BME280;51761;42.126;24.752;2022-07-24T04:02:39;99538.34;;;24.84;54.26
65175;BME280;51761;42.126;24.752;2022-07-24T04:05:05;99570.25;;;25.10;51.14
65175;BME280;51761;42.126;24.752;2022-07-24T04:07:36;99541.72;;;24.77;49.79
65175;BME280;51761;42.126;24.752;2022-07-24T04:10:03;99570.00;;;24.97;52.70
65175;BME280;51761;42.126;24.752;2022-07-24T04:12:29;99546.19;;;24.56;50.58
65175;BME280;51761;42.126;24.752;2022-07-24T04:14:55;99536.53;;;24.70;52.43
65175;BME280;51761;42.126;24.752;2022-07-24T04:17:20;99573.66;;;24.86;53.55
65175;BME280;51761;42.126;24.752;2022-07-24T04:19:46;99559.66;;;24.77;51.11
65175;BME280;51761;42.126;24.752;2022-07-24T04:22:11;99543.31;;;24.56;52.88
65175;BME280;51761;42.126;24.752;2022-07-24T04:24:37;99550.31;;;24.71;50.63
65175;BME280;51761;42.126;24.752;2022-07-24T04:27:02;99577.56;;;24.89;54.65
65175;BME280;51761;42.126;24.752;2022-07-24T04:29:28;99568.97;;;24.83;53.70
65175;BME280;51761;42.126;24.752;2022-07-24T04:31:53;99572.63;;;24.78;51.92
65175;BME280;51761;42.126;24.752;2022-07-24T04:34:19;99565.88;;;24.87;50.94
65175;BME280;51761;42.126;24.752;2022-07-24T04:36:44;99572.34;;;24.98;51.19
65175;BME280;51761;42.126;24.752;2022-07-24T04:39:10;99568.94;;;25.11;52.06
65175;BME280;51761;42.126;24.752;2022-07-24T04:41:36;99567.66;;;25.12;50.66
65175;BME280;51761;42.126;24.752;2022-07-24T04:44:02;99550.50;;;25.06;52.69
65175;BME280;51761;42.126;24.752;2022-07-24T04:46:27;99564.28;;;25.19;52.22
65175;BME280;51761;42.126;24.752;2022-07-24T04:48:53;99567.81;;;25.47;55.08
65175;BME280;51761;42.126;24.752;2022-07-24T04:51:18;99538.66;;;25.59;54.38
65175;BME280;51761;42.126;24.752;2022-07-24T04:53:44;99558.53;;;25.92;54.46
65175;BME280;51761;42.126;24.752;2022-07-24T04:56:09;99542.88;;;25.98;54.59
65175;BME280;51761;42.126;24.752;2022-07-24T04:58:35;99535.25;;;26.12;53.64
65175;BME280;51761;42.126;24.752;2022-07-24T05:01:00;99539.34;;;26.22;50.00
65175;BME280;51761;42.126;24.752;2022-07-24T05:03:26;99467.53;;;25.85;51.59
65175;BME280;51761;42.126;24.752;2022-07-24T05:05:51;99567.97;;;26.57;50.88
65175;BME280;51761;42.126;24.752;2022-07-24T05:08:17;99543.75;;;26.58;51.70
65175;BME280;51761;42.126;24.752;2022-07-24T05:10:42;99562.88;;;26.74;49.24
65175;BME280;51761;42.126;24.752;2022-07-24T05:13:08;99536.38;;;26.68;49.90
65175;BME280;51761;42.126;24.752;2022-07-24T05:15:34;99575.59;;;27.08;51.99
65175;BME280;51761;42.126;24.752;2022-07-24T05:17:59;99541.13;;;26.89;49.08
65175;BME280;51761;42.126;24.752;2022-07-24T05:20:25;99541.69;;;27.12;51.50
65175;BME280;51761;42.126;24.752;2022-07-24T05:22:51;99534.88;;;27.15;48.88
65175;BME280;51761;42.126;24.752;2022-07-24T05:25:16;99570.34;;;27.36;47.97
65175;BME280;51761;42.126;24.752;2022-07-24T05:27:42;99543.78;;;27.11;50.45
65175;BME280;51761;42.126;24.752;2022-07-24T05:30:08;99539.91;;;27.09;46.86
65175;BME280;51761;42.126;24.752;2022-07-24T05:32:33;99571.16;;;27.07;47.90
65175;BME280;51761;42.126;24.752;2022-07-24T05:34:59;99559.88;;;26.61;47.81
65175;BME280;51761;42.126;24.752;2022-07-24T05:37:24;99565.16;;;26.51;49.23
65175;BME280;51761;42.126;24.752;2022-07-24T05:39:50;99530.78;;;26.16;49.07
65175;BME280;51761;42.126;24.752;2022-07-24T05:42:15;99525.34;;;26.13;49.74
65175;BME280;51761;42.126;24.752;2022-07-24T05:44:41;99560.59;;;26.32;49.40
65175;BME280;51761;42.126;24.752;2022-07-24T05:47:07;99563.91;;;26.41;48.12
65175;BME280;51761;42.126;24.752;2022-07-24T05:49:32;99536.69;;;26.29;48.34
65175;BME280;51761;42.126;24.752;2022-07-24T05:51:58;99566.66;;;26.58;47.58
65175;BME280;51761;42.126;24.752;2022-07-24T05:54:24;99527.72;;;26.44;47.61
65175;BME280;51761;42.126;24.752;2022-07-24T05:56:49;99537.50;;;26.59;46.56
65175;BME280;51761;42.126;24.752;2022-07-24T05:59:15;99572.69;;;26.84;46.80
65175;BME280;51761;42.126;24.752;2022-07-24T06:01:40;99564.38;;;27.10;45.26
65175;BME280;51761;42.126;24.752;2022-07-24T06:04:06;99540.22;;;27.00;45.20
65175;BME280;51761;42.126;24.752;2022-07-24T06:06:31;99562.09;;;27.03;45.34
65175;BME280;51761;42.126;24.752;2022-07-24T06:08:57;99555.56;;;27.02;44.17
65175;BME280;51761;42.126;24.752;2022-07-24T06:11:22;99558.88;;;27.12;43.69
65175;BME280;51761;42.126;24.752;2022-07-24T06:13:49;99548.34;;;27.20;43.47
65175;BME280;51761;42.126;24.752;2022-07-24T06:16:14;99540.97;;;27.30;43.62
65175;BME280;51761;42.126;24.752;2022-07-24T06:18:40;99522.22;;;27.47;42.35
65175;BME280;51761;42.126;24.752;2022-07-24T06:21:06;99535.63;;;27.81;42.38
65175;BME280;51761;42.126;24.752;2022-07-24T06:23:32;99535.91;;;27.60;43.46
65175;BME280;51761;42.126;24.752;2022-07-24T06:25:58;99522.88;;;27.59;43.45
65175;BME280;51761;42.126;24.752;2022-07-24T06:28:24;99534.22;;;27.88;42.58
65175;BME280;51761;42.126;24.752;2022-07-24T06:30:49;99509.56;;;27.79;41.69
65175;BME280;51761;42.126;24.752;2022-07-24T06:33:15;99526.41;;;28.20;42.13
65175;BME280;51761;42.126;24.752;2022-07-24T06:35:40;99495.09;;;28.22;41.71
65175;BME280;51761;42.126;24.752;2022-07-24T06:38:06;99505.13;;;28.28;42.16
65175;BME280;51761;42.126;24.752;2022-07-24T06:40:31;99489.00;;;28.25;40.86
65175;BME280;51761;42.126;24.752;2022-07-24T06:42:58;99526.84;;;28.74;40.23
65175;BME280;51761;42.126;24.752;2022-07-24T06:45:24;99524.66;;;28.80;41.25
65175;BME280;51761;42.126;24.752;2022-07-24T06:47:49;99494.91;;;28.77;40.92
65175;BME280;51761;42.126;24.752;2022-07-24T06:50:15;99511.47;;;29.16;39.70
65175;BME280;51761;42.126;24.752;2022-07-24T06:52:41;99518.00;;;29.55;39.31
65175;BME280;51761;42.126;24.752;2022-07-24T06:55:08;99516.19;;;29.65;38.38
65175;BME280;51761;42.126;24.752;2022-07-24T06:57:34;99515.88;;;29.68;39.11
65175;BME280;51761;42.126;24.752;2022-07-24T06:59:59;99495.09;;;29.49;38.19
65175;BME280;51761;42.126;24.752;2022-07-24T07:02:25;99507.03;;;29.66;37.72
65175;BME280;51761;42.126;24.752;2022-07-24T07:04:51;99483.69;;;29.57;40.11
65175;BME280;51761;42.126;24.752;2022-07-24T07:07:16;99483.72;;;29.77;39.73
65175;BME280;51761;42.126;24.752;2022-07-24T07:09:42;99492.81;;;30.15;38.30
65175;BME280;51761;42.126;24.752;2022-07-24T07:12:08;99467.41;;;30.26;37.58
65175;BME280;51761;42.126;24.752;2022-07-24T07:14:34;99489.81;;;31.09;35.75
65175;BME280;51761;42.126;24.752;2022-07-24T07:16:59;99477.38;;;31.14;36.00
65175;BME280;51761;42.126;24.752;2022-07-24T07:19:25;99486.47;;;32.04;33.90
65175;BME280;51761;42.126;24.752;2022-07-24T07:21:50;99504.16;;;32.81;33.64
65175;BME280;51761;42.126;24.752;2022-07-24T07:24:16;99491.03;;;33.87;31.91
65175;BME280;51761;42.126;24.752;2022-07-24T07:26:42;99475.22;;;34.12;31.92
65175;BME280;51761;42.126;24.752;2022-07-24T07:29:08;99466.53;;;34.12;32.57
65175;BME280;51761;42.126;24.752;2022-07-24T07:31:33;99491.78;;;34.27;32.04
65175;BME280;51761;42.126;24.752;2022-07-24T07:33:59;99477.44;;;35.26;29.78
65175;BME280;51761;42.126;24.752;2022-07-24T07:36:25;99453.19;;;35.48;28.43
65175;BME280;51761;42.126;24.752;2022-07-24T07:38:51;99483.59;;;35.81;28.70
65175;BME280;51761;42.126;24.752;2022-07-24T07:41:16;99485.44;;;36.03;28.84
65175;BME280;51761;42.126;24.752;2022-07-24T07:43:47;99481.91;;;35.78;30.07
65175;BME280;51761;42.126;24.752;2022-07-24T07:46:14;99487.25;;;35.48;30.79
65175;BME280;51761;42.126;24.752;2022-07-24T07:48:40;99474.34;;;36.45;28.74
65175;BME280;51761;42.126;24.752;2022-07-24T07:51:05;99478.13;;;37.00;28.74
65175;BME280;51761;42.126;24.752;2022-07-24T07:53:31;99475.25;;;36.12;30.03
65175;BME280;51761;42.126;24.752;2022-07-24T07:55:57;99466.34;;;36.10;30.06
65175;BME280;51761;42.126;24.752;2022-07-24T07:58:22;99469.72;;;35.89;30.65
65175;BME280;51761;42.126;24.752;2022-07-24T08:00:48;99471.41;;;36.62;29.15
65175;BME280;51761;42.126;24.752;2022-07-24T08:03:14;99469.75;;;36.42;29.42
65175;BME280;51761;42.126;24.752;2022-07-24T08:05:40;99475.88;;;37.18;27.43
65175;BME280;51761;42.126;24.752;2022-07-24T08:08:05;99474.47;;;37.09;27.92
65175;BME280;51761;42.126;24.752;2022-07-24T08:10:31;99458.06;;;37.23;27.79
65175;BME280;51761;42.126;24.752;2022-07-24T08:12:57;99430.63;;;37.26;27.21
65175;BME280;51761;42.126;24.752;2022-07-24T08:15:22;99462.69;;;36.62;28.49
65175;BME280;51761;42.126;24.752;2022-07-24T08:17:53;99460.66;;;37.00;27.99
65175;BME280;51761;42.126;24.752;2022-07-24T08:20:19;99446.06;;;36.91;28.93
65175;BME280;51761;42.126;24.752;2022-07-24T08:22:45;99432.88;;;36.90;28.15
65175;BME280;51761;42.126;24.752;2022-07-24T08:25:11;99431.25;;;37.72;27.32
65175;BME280;51761;42.126;24.752;2022-07-24T08:27:37;99461.63;;;37.31;27.26
65175;BME280;51761;42.126;24.752;2022-07-24T08:30:04;99441.25;;;37.88;26.26
65175;BME280;51761;42.126;24.752;2022-07-24T08:32:30;99441.75;;;38.24;26.35
65175;BME280;51761;42.126;24.752;2022-07-24T08:34:55;99428.22;;;37.61;26.58
65175;BME280;51761;42.126;24.752;2022-07-24T08:37:21;99450.28;;;37.73;27.02
65175;BME280;51761;42.126;24.752;2022-07-24T08:39:46;99417.16;;;37.88;25.81
65175;BME280;51761;42.126;24.752;2022-07-24T08:42:12;99416.72;;;38.31;25.32
65175;BME280;51761;42.126;24.752;2022-07-24T08:44:38;99443.34;;;38.07;26.69
65175;BME280;51761;42.126;24.752;2022-07-24T08:47:06;99421.28;;;37.94;27.10
65175;BME280;51761;42.126;24.752;2022-07-24T08:49:35;99455.66;;;37.77;26.36
65175;BME280;51761;42.126;24.752;2022-07-24T08:52:03;99417.19;;;37.59;26.58
65175;BME280;51761;42.126;24.752;2022-07-24T08:54:30;99438.94;;;37.68;26.96
65175;BME280;51761;42.126;24.752;2022-07-24T08:56:57;99421.59;;;37.32;27.56
65175;BME280;51761;42.126;24.752;2022-07-24T08:59:23;99414.72;;;37.65;26.29
65175;BME280;51761;42.126;24.752;2022-07-24T09:01:49;99433.09;;;37.96;25.92
65175;BME280;51761;42.126;24.752;2022-07-24T09:04:50;99438.16;;;37.86;26.66
65175;BME280;51761;42.126;24.752;2022-07-24T09:07:22;99424.34;;;37.20;27.71
65175;BME280;51761;42.126;24.752;2022-07-24T09:10:05;99421.88;;;37.93;26.36
65175;BME280;51761;42.126;24.752;2022-07-24T09:12:36;99414.72;;;37.75;26.60
65175;BME280;51761;42.126;24.752;2022-07-24T09:15:16;99425.28;;;37.42;27.64
65175;BME280;51761;42.126;24.752;2022-07-24T09:17:51;99425.44;;;37.72;26.72
65175;BME280;51761;42.126;24.752;2022-07-24T09:20:17;99378.34;;;37.38;26.51
65175;BME280;51761;42.126;24.752;2022-07-24T09:22:43;99391.06;;;37.71;26.96
65175;BME280;51761;42.126;24.752;2022-07-24T09:25:22;99417.03;;;37.48;26.99
65175;BME280;51761;42.126;24.752;2022-07-24T09:27:59;99405.63;;;37.71;26.41
65175;BME280;51761;42.126;24.752;2022-07-24T09:30:32;99406.53;;;38.02;26.16
65175;BME280;51761;42.126;24.752;2022-07-24T09:33:03;99384.81;;;38.14;25.63
65175;BME280;51761;42.126;24.752;2022-07-24T09:35:34;99400.91;;;38.24;26.32
65175;BME280;51761;42.126;24.752;2022-07-24T09:38:02;99370.47;;;37.97;25.97
65175;BME280;51761;42.126;24.752;2022-07-24T09:40:33;99378.53;;;38.17;25.30
65175;BME280;51761;42.126;24.752;2022-07-24T09:43:15;99395.25;;;38.57;25.87
65175;BME280;51761;42.126;24.752;2022-07-24T09:48:25;99396.28;;;37.91;26.49
65175;BME280;51761;42.126;24.752;2022-07-24T09:50:53;99368.34;;;37.88;25.42
65175;BME280;51761;42.126;24.752;2022-07-24T09:53:21;99377.44;;;37.64;27.60
65175;BME280;51761;42.126;24.752;2022-07-24T09:56:08;99390.31;;;37.42;26.92
65175;BME280;51761;42.126;24.752;2022-07-24T09:58:42;99352.78;;;37.46;26.69
65175;BME280;51761;42.126;24.752;2022-07-24T10:01:14;99350.06;;;37.97;25.69
65175;BME280;51761;42.126;24.752;2022-07-24T10:03:41;99366.56;;;38.14;26.08
65175;BME280;51761;42.126;24.752;2022-07-24T10:06:13;99365.06;;;38.03;27.47
65175;BME280;51761;42.126;24.752;2022-07-24T10:08:41;99360.38;;;37.89;27.05
65175;BME280;51761;42.126;24.752;2022-07-24T10:11:07;99364.41;;;37.17;27.95
65175;BME280;51761;42.126;24.752;2022-07-24T10:13:34;99360.69;;;36.88;28.24
65175;BME280;51761;42.126;24.752;2022-07-24T10:18:49;99359.78;;;36.76;28.23
65175;BME280;51761;42.126;24.752;2022-07-24T10:21:36;99358.94;;;36.57;28.04
65175;BME280;51761;42.126;24.752;2022-07-24T10:24:09;99356.13;;;36.40;28.98
65175;BME280;51761;42.126;24.752;2022-07-24T10:26:45;99345.41;;;36.33;28.88
65175;BME280;51761;42.126;24.752;2022-07-24T10:29:18;99337.38;;;36.69;29.12
65175;BME280;51761;42.126;24.752;2022-07-24T10:31:47;99335.75;;;37.14;26.87
65175;BME280;51761;42.126;24.752;2022-07-24T10:34:42;99334.06;;;37.49;27.04
65175;BME280;51761;42.126;24.752;2022-07-24T10:37:15;99326.47;;;37.74;27.04
65175;BME280;51761;42.126;24.752;2022-07-24T10:42:32;99323.41;;;38.12;26.82
65175;BME280;51761;42.126;24.752;2022-07-24T10:45:18;99323.66;;;38.25;26.08
65175;BME280;51761;42.126;24.752;2022-07-24T10:47:45;99323.19;;;38.38;26.30
65175;BME280;51761;42.126;24.752;2022-07-24T10:50:11;99302.41;;;38.44;25.69
65175;BME280;51761;42.126;24.752;2022-07-24T10:52:37;99306.50;;;38.50;26.12
65175;BME280;51761;42.126;24.752;2022-07-24T10:55:22;99317.84;;;38.98;25.80
65175;BME280;51761;42.126;24.752;2022-07-24T10:57:59;99305.41;;;38.97;24.24
65175;BME280;51761;42.126;24.752;2022-07-24T11:00:33;99305.47;;;39.09;23.72
65175;BME280;51761;42.126;24.752;2022-07-24T11:03:02;99302.69;;;39.11;24.58
65175;BME280;51761;42.126;24.752;2022-07-24T11:10:50;99286.69;;;39.44;23.47
65175;BME280;51761;42.126;24.752;2022-07-24T11:21:45;99285.53;;;40.04;21.01
65175;BME280;51761;42.126;24.752;2022-07-24T11:29:23;99278.66;;;40.23;22.41
65175;BME280;51761;42.126;24.752;2022-07-24T11:34:24;99228.53;;;39.94;22.28
65175;BME280;51761;42.126;24.752;2022-07-24T11:36:55;99270.78;;;40.14;21.88
65175;BME280;51761;42.126;24.752;2022-07-24T11:39:27;99257.28;;;39.86;22.82
65175;BME280;51761;42.126;24.752;2022-07-24T11:41:58;99212.38;;;39.70;22.30
65175;BME280;51761;42.126;24.752;2022-07-24T11:44:29;99230.97;;;39.97;22.82
65175;BME280;51761;42.126;24.752;2022-07-24T11:46:56;99231.06;;;39.77;23.09
65175;BME280;51761;42.126;24.752;2022-07-24T11:49:23;99216.81;;;39.94;23.66
65175;BME280;51761;42.126;24.752;2022-07-24T11:51:52;99247.63;;;40.18;22.92
65175;BME280;51761;42.126;24.752;2022-07-24T11:54:25;99220.66;;;39.97;24.05
65175;BME280;51761;42.126;24.752;2022-07-24T11:56:52;99232.59;;;40.35;21.81
65175;BME280;51761;42.126;24.752;2022-07-24T11:59:23;99208.06;;;40.17;22.55
65175;BME280;51761;42.126;24.752;2022-07-24T12:01:49;99230.06;;;40.29;22.06
65175;BME280;51761;42.126;24.752;2022-07-24T12:04:21;99222.66;;;40.40;22.18
65175;BME280;51761;42.126;24.752;2022-07-24T12:06:48;99191.16;;;40.15;22.88
65175;BME280;51761;42.126;24.752;2022-07-24T12:09:13;99218.09;;;40.85;20.25
65175;BME280;51761;42.126;24.752;2022-07-24T12:11:39;99214.09;;;40.55;21.14
65175;BME280;51761;42.126;24.752;2022-07-24T12:14:17;99217.19;;;40.82;20.85
65175;BME280;51761;42.126;24.752;2022-07-24T12:16:44;99197.44;;;40.58;20.53
65175;BME280;51761;42.126;24.752;2022-07-24T12:19:23;99202.09;;;40.15;20.92
65175;BME280;51761;42.126;24.752;2022-07-24T12:21:51;99168.75;;;39.97;21.16
65175;BME280;51761;42.126;24.752;2022-07-24T12:24:18;99193.84;;;40.59;20.30
65175;BME280;51761;42.126;24.752;2022-07-24T12:26:57;99184.72;;;40.53;22.49
65175;BME280;51761;42.126;24.752;2022-07-24T12:29:25;99164.72;;;40.50;22.18
65175;BME280;51761;42.126;24.752;2022-07-24T12:32:16;99186.25;;;40.79;22.57
65175;BME280;51761;42.126;24.752;2022-07-24T12:34:46;99160.06;;;40.70;21.22
65175;BME280;51761;42.126;24.752;2022-07-24T12:37:17;99155.09;;;40.72;20.24
65175;BME280;51761;42.126;24.752;2022-07-24T12:39:51;99167.63;;;41.11;19.69
65175;BME280;51761;42.126;24.752;2022-07-24T12:42:27;99174.75;;;40.95;19.19
65175;BME280;51761;42.126;24.752;2022-07-24T12:44:53;99144.19;;;41.11;19.57
65175;BME280;51761;42.126;24.752;2022-07-24T12:47:19;99158.56;;;41.19;19.39
65175;BME280;51761;42.126;24.752;2022-07-24T12:49:45;99129.47;;;40.48;19.78
65175;BME280;51761;42.126;24.752;2022-07-24T12:52:23;99150.50;;;40.44;19.25
65175;BME280;51761;42.126;24.752;2022-07-24T12:54:50;99151.59;;;40.14;19.72
65175;BME280;51761;42.126;24.752;2022-07-24T12:57:16;99125.50;;;40.18;18.99
65175;BME280;51761;42.126;24.752;2022-07-24T12:59:44;99120.69;;;40.48;19.52
65175;BME280;51761;42.126;24.752;2022-07-24T13:02:24;99111.47;;;40.90;18.44
65175;BME280;51761;42.126;24.752;2022-07-24T13:04:54;99122.56;;;41.05;19.46
65175;BME280;51761;42.126;24.752;2022-07-24T13:07:24;99125.41;;;41.03;20.97
65175;BME280;51761;42.126;24.752;2022-07-24T13:09:50;99114.97;;;41.38;19.05
65175;BME280;51761;42.126;24.752;2022-07-24T13:12:17;99115.44;;;41.73;17.93
65175;BME280;51761;42.126;24.752;2022-07-24T13:14:42;99130.13;;;41.86;18.80
65175;BME280;51761;42.126;24.752;2022-07-24T13:17:13;99092.84;;;41.62;17.69
65175;BME280;51761;42.126;24.752;2022-07-24T13:19:45;99100.78;;;41.86;17.74
65175;BME280;51761;42.126;24.752;2022-07-24T13:22:10;99117.06;;;41.89;17.38